createdAt,value
2019-01-11T00:02:00.056Z,13.97
2019-01-11T00:04:27.672Z,15.10
2019-01-11T00:06:55.294Z,17.47
2019-01-11T00:09:22.786Z,12.03
2019-01-11T00:11:50.390Z,13.70
2019-01-11T00:14:18.091Z,10.17
2019-01-11T00:16:45.609Z,13.77
2019-01-11T00:19:13.182Z,8.27
2019-01-11T00:21:40.998Z,10.27
2019-01-11T00:24:08.512Z,12.17
2019-01-11T00:26:36.004Z,10.53
2019-01-11T00:29:04.399Z,10.63
2019-01-11T00:31:32.197Z,11.77
2019-01-11T00:33:59.867Z,10.97
2019-01-11T00:36:27.497Z,12.77
2019-01-11T00:38:54.988Z,15.23
2019-01-11T00:41:22.497Z,18.90
2019-01-11T00:43:50.151Z,17.23
2019-01-11T00:46:17.616Z,15.37
2019-01-11T00:48:45.184Z,16.63
2019-01-11T00:51:12.609Z,13.23
2019-01-11T00:53:40.509Z,13.70
2019-01-11T00:56:07.961Z,10.67
2019-01-11T00:58:35.470Z,11.27
2019-01-11T01:01:03.476Z,11.97
2019-01-11T01:03:31.209Z,11.90
2019-01-11T01:05:58.620Z,13.47
2019-01-11T01:08:30.501Z,9.80
2019-01-11T01:10:55.707Z,12.60
2019-01-11T01:13:23.205Z,12.70
2019-01-11T01:15:50.717Z,9.80
2019-01-11T01:18:18.374Z,12.17
2019-01-11T01:20:46.120Z,10.17
2019-01-11T01:23:13.715Z,14.33
2019-01-11T01:25:41.237Z,11.77
2019-01-11T01:28:08.877Z,11.30
2019-01-11T01:30:36.403Z,12.37
2019-01-11T01:33:04.215Z,13.27
2019-01-11T01:35:31.891Z,12.10
2019-01-11T01:37:59.554Z,11.30
2019-01-11T01:40:27.212Z,14.93
2019-01-11T01:42:54.864Z,12.30
2019-01-11T01:45:22.371Z,10.77
2019-01-11T01:47:49.810Z,14.00
2019-01-11T01:50:17.357Z,12.20
2019-01-11T01:52:44.899Z,14.93
2019-01-11T01:55:13.446Z,12.27
2019-01-11T01:57:40.973Z,9.97
2019-01-11T02:00:11.896Z,12.87
2019-01-11T02:02:39.519Z,14.20
2019-01-11T02:05:08.127Z,10.73
2019-01-11T02:07:35.613Z,11.53
2019-01-11T02:10:04.359Z,14.50
2019-01-11T02:12:31.824Z,10.97
2019-01-11T02:14:59.292Z,10.70
2019-01-11T02:17:26.801Z,13.37
2019-01-11T02:19:54.168Z,12.07
2019-01-11T02:22:21.736Z,12.13
2019-01-11T02:24:49.178Z,14.70
2019-01-11T02:27:16.738Z,13.13
2019-01-11T02:29:44.211Z,12.47
2019-01-11T02:32:12.050Z,10.87
2019-01-11T02:34:39.713Z,14.93
2019-01-11T02:37:07.230Z,10.27
2019-01-11T02:39:34.717Z,14.70
2019-01-11T02:42:02.799Z,13.57
2019-01-11T02:44:30.408Z,20.20
2019-01-11T02:46:57.874Z,17.03
2019-01-11T02:49:25.478Z,12.40
2019-01-11T02:51:52.987Z,15.20
2019-01-11T02:54:20.475Z,16.37
2019-01-11T02:56:48.037Z,16.50
2019-01-11T02:59:15.698Z,16.30
2019-01-11T03:01:43.325Z,14.70
2019-01-11T03:04:11.235Z,11.63
2019-01-11T03:06:38.949Z,16.40
2019-01-11T03:09:07.351Z,13.77
2019-01-11T03:11:34.885Z,14.27
2019-01-11T03:14:02.383Z,16.80
2019-01-11T03:16:29.800Z,16.47
2019-01-11T03:18:57.400Z,15.20
2019-01-11T03:21:24.832Z,14.70
2019-01-11T03:23:52.384Z,16.07
2019-01-11T03:26:20.311Z,16.10
2019-01-11T03:28:47.947Z,13.83
2019-01-11T03:31:43.883Z,15.27
2019-01-11T03:34:11.382Z,9.70
2019-01-11T03:36:39.013Z,13.80
2019-01-11T03:39:07.292Z,13.63
2019-01-11T03:41:36.812Z,15.40
2019-01-11T03:44:04.661Z,17.87
2019-01-11T03:46:32.157Z,16.97
2019-01-11T03:49:00.343Z,14.80
2019-01-11T03:51:28.050Z,11.00
2019-01-11T03:53:55.643Z,14.53
2019-01-11T03:56:23.171Z,17.00
2019-01-11T03:58:50.660Z,10.73
2019-01-11T04:01:18.336Z,16.90
2019-01-11T04:03:45.896Z,13.47
2019-01-11T04:06:13.330Z,18.50
2019-01-11T04:08:40.830Z,13.80
2019-01-11T04:11:08.615Z,16.37
2019-01-11T04:13:36.230Z,13.80
2019-01-11T04:16:03.856Z,17.20
2019-01-11T04:18:32.474Z,16.60
2019-01-11T04:21:00.481Z,13.93
2019-01-11T04:23:27.983Z,12.27
2019-01-11T04:25:55.687Z,15.10
2019-01-11T04:28:23.520Z,16.47
2019-01-11T04:30:51.183Z,16.57
2019-01-11T04:33:18.760Z,16.80
2019-01-11T04:35:46.342Z,17.13
2019-01-11T04:38:13.932Z,16.70
2019-01-11T04:40:41.446Z,15.47
2019-01-11T04:43:08.922Z,20.87
2019-01-11T04:45:36.460Z,17.20
2019-01-11T04:48:04.048Z,21.00
2019-01-11T04:50:31.592Z,19.07
2019-01-11T04:52:59.093Z,13.93
2019-01-11T04:55:26.627Z,18.37
2019-01-11T04:57:54.165Z,16.90
2019-01-11T05:00:22.615Z,14.03
2019-01-11T05:02:50.144Z,14.27
2019-01-11T05:05:17.848Z,15.20
2019-01-11T05:07:45.403Z,16.70
2019-01-11T05:10:14.731Z,19.57
2019-01-11T05:12:42.320Z,16.73
2019-01-11T05:15:10.152Z,15.23
2019-01-11T05:17:37.817Z,19.60
2019-01-11T05:20:06.410Z,19.93
2019-01-11T05:22:34.569Z,21.37
2019-01-11T05:25:02.146Z,19.07
2019-01-11T05:27:29.833Z,18.40
2019-01-11T05:29:57.219Z,19.03
2019-01-11T05:32:24.952Z,18.83
2019-01-11T05:34:52.413Z,17.13
2019-01-11T05:37:19.866Z,16.90
2019-01-11T05:39:47.567Z,16.10
2019-01-11T05:42:15.085Z,16.20
2019-01-11T05:44:42.581Z,15.17
2019-01-11T05:47:10.116Z,14.57
2019-01-11T05:49:37.556Z,20.23
2019-01-11T05:52:05.046Z,20.67
2019-01-11T05:54:32.618Z,19.20
2019-01-11T05:57:00.113Z,20.87
2019-01-11T05:59:27.566Z,29.00
2019-01-11T06:01:55.061Z,24.80
2019-01-11T06:04:57.309Z,24.93
2019-01-11T06:07:31.867Z,24.40
2019-01-11T06:09:59.316Z,17.97
2019-01-11T06:12:26.939Z,22.10
2019-01-11T06:14:54.477Z,21.43
2019-01-11T06:17:22.038Z,22.87
2019-01-11T06:19:49.580Z,24.30
2019-01-11T06:22:17.062Z,19.97
2019-01-11T06:24:44.754Z,20.63
2019-01-11T06:27:12.350Z,20.10
2019-01-11T06:29:41.036Z,22.87
2019-01-11T06:32:08.607Z,22.43
2019-01-11T06:34:36.375Z,26.07
2019-01-11T06:37:04.300Z,32.63
2019-01-11T06:39:31.986Z,27.77
2019-01-11T06:42:10.248Z,21.00
2019-01-11T06:44:39.105Z,23.43
2019-01-11T06:47:07.079Z,25.27
2019-01-11T06:49:34.759Z,19.77
2019-01-11T06:52:02.298Z,18.00
2019-01-11T06:54:29.771Z,20.80
2019-01-11T06:56:57.722Z,19.50
2019-01-11T06:59:25.541Z,16.43
2019-01-11T07:01:53.042Z,18.00
2019-01-11T07:04:20.516Z,18.57
2019-01-11T07:06:47.963Z,18.07
2019-01-11T07:09:15.609Z,24.60
2019-01-11T07:11:43.283Z,22.77
2019-01-11T07:14:11.019Z,23.53
2019-01-11T07:16:38.473Z,25.83
2019-01-11T07:19:06.023Z,24.63
2019-01-11T07:21:33.540Z,26.50
2019-01-11T07:24:01.003Z,27.07
2019-01-11T07:26:28.499Z,26.17
2019-01-11T07:28:55.950Z,25.23
2019-01-11T07:31:30.271Z,31.27
2019-01-11T07:33:58.109Z,30.40
2019-01-11T07:36:29.457Z,37.17
2019-01-11T07:38:57.506Z,25.53
2019-01-11T07:41:25.104Z,25.80
2019-01-11T07:43:52.595Z,23.03
2019-01-11T07:46:20.132Z,22.93
2019-01-11T07:48:47.685Z,21.97
2019-01-11T07:51:15.151Z,23.03
2019-01-11T07:53:42.743Z,26.00
2019-01-11T07:56:10.385Z,23.67
2019-01-11T07:58:38.052Z,22.60
2019-01-11T08:01:05.555Z,25.43
2019-01-11T08:03:33.069Z,23.13
2019-01-11T08:06:00.678Z,18.87
2019-01-11T08:08:28.146Z,21.10
2019-01-11T08:10:55.818Z,21.53
2019-01-11T08:13:23.616Z,15.77
2019-01-11T08:15:51.263Z,17.03
2019-01-11T08:18:18.831Z,12.80
2019-01-11T08:20:46.884Z,16.63
2019-01-11T08:23:14.422Z,13.07
2019-01-11T08:25:41.978Z,13.10
2019-01-11T08:28:09.642Z,15.23
2019-01-11T08:30:37.294Z,14.50
2019-01-11T08:33:04.945Z,16.57
2019-01-11T08:35:32.610Z,15.83
2019-01-11T08:38:00.197Z,11.37
2019-01-11T08:40:27.743Z,13.80
2019-01-11T08:42:55.634Z,13.90
2019-01-11T08:45:23.225Z,13.90
2019-01-11T08:47:50.897Z,11.33
2019-01-11T08:50:18.670Z,11.63
2019-01-11T08:52:46.185Z,12.27
2019-01-11T08:55:13.788Z,12.30
2019-01-11T08:57:41.485Z,13.57
2019-01-11T09:00:10.839Z,9.87
2019-01-11T09:02:38.333Z,8.27
2019-01-11T09:05:06.371Z,10.40
2019-01-11T09:07:33.983Z,8.57
2019-01-11T09:10:01.500Z,9.07
2019-01-11T09:12:29.172Z,10.00
2019-01-11T09:14:56.668Z,11.03
2019-01-11T09:17:24.240Z,11.33
2019-01-11T09:19:51.722Z,14.03
2019-01-11T09:22:19.414Z,14.13
2019-01-11T09:24:47.203Z,25.93
2019-01-11T09:27:14.887Z,11.10
2019-01-11T09:29:42.382Z,13.13
2019-01-11T09:32:10.164Z,11.07
2019-01-11T09:34:37.765Z,12.20
2019-01-11T09:37:05.565Z,10.23
2019-01-11T09:39:33.181Z,12.37
2019-01-11T09:42:00.633Z,13.37
2019-01-11T09:44:28.334Z,14.38
2019-01-11T09:46:55.806Z,17.27
2019-01-11T09:49:23.441Z,20.30
2019-01-11T09:51:50.964Z,20.57
2019-01-11T09:54:18.594Z,18.93
2019-01-11T09:56:46.083Z,19.77
2019-01-11T09:59:13.640Z,15.73
2019-01-11T10:01:41.095Z,14.20
2019-01-11T10:04:11.109Z,14.30
2019-01-11T10:06:44.961Z,12.80
2019-01-11T10:09:12.608Z,14.93
2019-01-11T10:11:40.030Z,13.27
2019-01-11T10:14:07.628Z,14.47
2019-01-11T10:16:35.165Z,17.13
2019-01-11T10:19:02.594Z,17.83
2019-01-11T10:21:30.201Z,16.87
2019-01-11T10:23:57.802Z,15.93
2019-01-11T10:26:25.197Z,17.23
2019-01-11T10:28:53.069Z,16.37
2019-01-11T10:31:20.648Z,18.60
2019-01-11T10:33:48.272Z,15.33
2019-01-11T10:36:16.052Z,23.97
2019-01-11T10:38:45.061Z,23.20
2019-01-11T10:41:12.590Z,18.90
2019-01-11T10:43:40.126Z,19.80
2019-01-11T10:46:19.322Z,20.10
2019-01-11T10:48:46.902Z,22.50
2019-01-11T10:51:14.368Z,13.67
2019-01-11T10:53:42.076Z,15.00
2019-01-11T10:56:09.677Z,17.63
2019-01-11T10:58:37.220Z,17.13
2019-01-11T11:01:04.821Z,17.57
2019-01-11T11:03:32.361Z,19.73
2019-01-11T11:06:00.596Z,18.50
2019-01-11T11:08:28.192Z,15.37
2019-01-11T11:10:55.802Z,16.83
2019-01-11T11:13:23.360Z,19.73
2019-01-11T11:15:51.020Z,15.13
2019-01-11T11:18:18.618Z,18.13
2019-01-11T11:20:46.180Z,20.40
2019-01-11T11:23:13.903Z,18.27
2019-01-11T11:25:41.495Z,18.23
2019-01-11T11:28:08.973Z,17.00
2019-01-11T11:30:36.997Z,16.67
2019-01-11T11:33:05.119Z,19.13
2019-01-11T11:35:33.084Z,27.13
2019-01-11T11:38:01.027Z,18.17
2019-01-11T11:40:29.924Z,18.23
2019-01-11T11:42:57.457Z,19.13
2019-01-11T11:45:24.896Z,21.53
2019-01-11T11:47:52.359Z,22.87
2019-01-11T11:50:20.150Z,17.63
2019-01-11T11:52:47.779Z,18.43
2019-01-11T11:55:15.299Z,18.93
2019-01-11T11:57:43.088Z,19.30
2019-01-11T12:00:13.811Z,18.50
2019-01-11T12:02:41.331Z,22.33
2019-01-11T12:05:09.106Z,21.93
2019-01-11T12:07:36.743Z,18.67
2019-01-11T12:10:05.103Z,17.53
2019-01-11T12:12:32.569Z,16.80
2019-01-11T12:15:00.171Z,25.30
2019-01-11T12:17:27.696Z,22.17
2019-01-11T12:19:57.130Z,23.40
2019-01-11T12:22:24.495Z,18.67
2019-01-11T12:24:52.347Z,25.57
2019-01-11T12:27:19.867Z,18.90
2019-01-11T12:29:47.348Z,22.83
2019-01-11T12:32:19.553Z,21.60
2019-01-11T12:34:44.575Z,23.27
2019-01-11T12:37:12.143Z,22.00
2019-01-11T12:39:40.035Z,23.37
2019-01-11T12:42:07.591Z,22.40
2019-01-11T12:44:35.158Z,23.03
2019-01-11T12:47:02.804Z,21.13
2019-01-11T12:49:30.400Z,21.83
2019-01-11T12:51:57.907Z,23.10
2019-01-11T12:54:25.439Z,20.83
2019-01-11T12:56:53.082Z,21.93
2019-01-11T12:59:20.591Z,19.30
2019-01-11T13:01:47.975Z,20.83
2019-01-11T13:04:15.634Z,18.03
2019-01-11T13:06:43.109Z,19.97
2019-01-11T13:09:10.563Z,19.43
2019-01-11T13:11:38.083Z,25.97
2019-01-11T13:14:05.808Z,23.50
2019-01-11T13:16:33.239Z,22.73
2019-01-11T13:19:00.668Z,23.33
2019-01-11T13:21:28.134Z,22.70
2019-01-11T13:23:55.741Z,21.27
2019-01-11T13:26:23.190Z,19.93
2019-01-11T13:28:50.735Z,20.83
2019-01-11T13:31:18.335Z,23.53
2019-01-11T13:33:45.935Z,24.47
2019-01-11T13:36:18.554Z,26.70
2019-01-11T13:38:46.148Z,27.90
2019-01-11T13:41:13.718Z,30.00
2019-01-11T13:43:41.389Z,29.77
2019-01-11T13:46:08.929Z,27.90
2019-01-11T13:48:36.551Z,30.10
2019-01-11T13:51:04.439Z,27.37
2019-01-11T13:53:32.534Z,31.53
2019-01-11T13:56:00.266Z,28.17
2019-01-11T13:58:28.189Z,26.83
2019-01-11T14:00:55.995Z,28.90
2019-01-11T14:03:23.592Z,20.73
2019-01-11T14:05:51.431Z,21.03
2019-01-11T14:08:19.122Z,21.57
2019-01-11T14:10:46.604Z,22.33
2019-01-11T14:13:14.174Z,18.60
2019-01-11T14:15:42.247Z,20.30
2019-01-11T14:18:09.839Z,21.07
2019-01-11T14:20:37.324Z,20.30
2019-01-11T14:23:06.415Z,23.53
2019-01-11T14:25:34.064Z,17.77
2019-01-11T14:28:01.550Z,19.67
2019-01-11T14:30:29.370Z,27.13
2019-01-11T14:32:56.901Z,21.87
2019-01-11T14:35:24.489Z,22.20
2019-01-11T14:37:52.166Z,20.30
2019-01-11T14:40:19.723Z,25.67
2019-01-11T14:42:47.449Z,18.47
2019-01-11T14:45:16.067Z,22.20
2019-01-11T14:47:43.862Z,23.03
2019-01-11T14:50:16.805Z,24.27
2019-01-11T14:52:44.491Z,23.43
2019-01-11T14:55:12.357Z,24.63
2019-01-11T14:57:39.978Z,21.37
2019-01-11T15:00:10.955Z,18.90
2019-01-11T15:02:38.576Z,21.60
2019-01-11T15:05:07.859Z,18.00
2019-01-11T15:07:35.396Z,23.17
2019-01-11T15:10:04.648Z,18.13
2019-01-11T15:12:32.260Z,23.67
2019-01-11T15:14:59.913Z,21.73
2019-01-11T15:17:27.439Z,18.83
2019-01-11T15:19:55.089Z,17.77
2019-01-11T15:22:26.515Z,23.73
2019-01-11T15:24:52.115Z,24.43
2019-01-11T15:27:19.669Z,24.53
2019-01-11T15:29:47.190Z,21.70
2019-01-11T15:32:14.694Z,20.63
2019-01-11T15:34:42.132Z,22.43
2019-01-11T15:37:09.888Z,20.20
2019-01-11T15:39:37.474Z,16.93
2019-01-11T15:42:05.211Z,28.87
2019-01-11T15:44:32.920Z,22.20
2019-01-11T15:47:00.417Z,22.10
2019-01-11T15:49:28.034Z,20.07
2019-01-11T15:51:55.577Z,20.50
2019-01-11T15:54:23.108Z,20.63
2019-01-11T15:56:50.810Z,25.60
2019-01-11T15:59:18.478Z,22.07
2019-01-11T16:01:49.617Z,20.13
2019-01-11T16:04:17.197Z,22.73
2019-01-11T16:06:44.797Z,21.03
2019-01-11T16:10:04.400Z,21.23
2019-01-11T16:12:37.010Z,24.03
2019-01-11T16:15:32.423Z,25.47
2019-01-11T16:18:02.982Z,27.20
2019-01-11T16:20:30.465Z,23.23
2019-01-11T16:22:58.115Z,23.40
2019-01-11T16:25:25.814Z,27.97
2019-01-11T16:27:53.672Z,25.17
2019-01-11T16:30:21.334Z,22.97
2019-01-11T16:32:48.857Z,22.60
2019-01-11T16:35:16.494Z,24.57
2019-01-11T16:37:44.346Z,22.67
2019-01-11T16:40:12.536Z,22.23
2019-01-11T16:42:40.048Z,21.77
2019-01-11T16:45:09.711Z,21.43
2019-01-11T16:47:37.310Z,19.53
2019-01-11T16:50:07.085Z,23.13
2019-01-11T16:52:34.638Z,25.23
2019-01-11T16:55:02.300Z,23.47
2019-01-11T16:57:29.833Z,24.07
2019-01-11T16:59:57.334Z,19.90
2019-01-11T17:02:24.933Z,19.93
2019-01-11T17:04:52.471Z,27.53
2019-01-11T17:07:20.079Z,25.70
2019-01-11T17:09:47.578Z,23.53
2019-01-11T17:12:15.380Z,23.77
2019-01-11T17:14:43.060Z,20.13
2019-01-11T17:17:10.651Z,26.60
2019-01-11T17:19:38.156Z,20.80
2019-01-11T17:22:05.773Z,21.00
2019-01-11T17:24:33.279Z,21.87
2019-01-11T17:27:01.086Z,19.97
2019-01-11T17:29:28.686Z,23.07
2019-01-11T17:31:56.133Z,21.67
2019-01-11T17:34:23.924Z,24.10
2019-01-11T17:36:51.333Z,24.30
2019-01-11T17:39:19.063Z,21.00
2019-01-11T17:41:46.567Z,26.67
2019-01-11T17:44:14.072Z,22.93
2019-01-11T17:46:41.784Z,25.00
2019-01-11T17:49:09.425Z,21.23
2019-01-11T17:51:36.954Z,23.13
2019-01-11T17:54:04.624Z,29.83
2019-01-11T17:56:32.132Z,19.47
2019-01-11T17:58:59.709Z,21.53
2019-01-11T18:01:27.273Z,23.47
2019-01-11T18:03:54.914Z,18.93
2019-01-11T18:06:22.544Z,24.80
2019-01-11T18:08:50.088Z,23.13
2019-01-11T18:11:17.556Z,21.43
2019-01-11T18:13:45.126Z,21.30
2019-01-11T18:16:12.692Z,23.17
2019-01-11T18:18:40.163Z,21.90
2019-01-11T18:21:07.748Z,20.20
2019-01-11T18:23:43.720Z,19.33
2019-01-11T18:26:11.335Z,21.00
2019-01-11T18:28:38.789Z,21.87
2019-01-11T18:31:06.542Z,20.53
2019-01-11T18:33:34.037Z,18.60
2019-01-11T18:36:01.674Z,23.73
2019-01-11T18:38:29.137Z,19.73
2019-01-11T18:40:58.172Z,18.83
2019-01-11T18:43:25.861Z,19.97
2019-01-11T18:45:53.323Z,17.43
2019-01-11T18:48:20.800Z,25.80
2019-01-11T18:50:48.383Z,18.63
2019-01-11T18:53:16.026Z,22.37
2019-01-11T18:55:43.449Z,15.60
2019-01-11T18:58:10.904Z,16.63
2019-01-11T19:00:38.369Z,16.43
2019-01-11T19:03:05.899Z,18.87
2019-01-11T19:05:33.398Z,22.03
2019-01-11T19:08:00.897Z,17.23
2019-01-11T19:10:28.291Z,18.07
2019-01-11T19:12:55.825Z,20.70
2019-01-11T19:15:26.039Z,23.30
2019-01-11T19:17:53.689Z,14.80
2019-01-11T19:20:31.481Z,20.87
2019-01-11T19:23:00.093Z,22.27
2019-01-11T19:25:27.585Z,20.27
2019-01-11T19:27:55.222Z,22.30
2019-01-11T19:30:27.166Z,20.83
2019-01-11T19:32:54.915Z,23.30
2019-01-11T19:35:22.429Z,26.67
2019-01-11T19:37:50.079Z,25.40
2019-01-11T19:40:17.966Z,25.10
2019-01-11T19:42:45.578Z,21.63
2019-01-11T19:45:13.654Z,24.40
2019-01-11T19:47:41.599Z,27.57
2019-01-11T19:50:17.623Z,26.33
2019-01-11T19:52:45.555Z,27.10
2019-01-11T19:55:13.466Z,25.80
2019-01-11T19:57:40.981Z,27.80
2019-01-11T20:00:13.208Z,28.70
2019-01-11T20:02:40.831Z,30.57
2019-01-11T20:05:08.654Z,24.70
2019-01-11T20:07:36.159Z,26.93
2019-01-11T20:10:04.895Z,24.70
2019-01-11T20:12:32.636Z,25.87
2019-01-11T20:15:00.366Z,28.00
2019-01-11T20:17:29.368Z,24.43
2019-01-11T20:19:57.062Z,29.23
2019-01-11T20:22:24.636Z,27.63
2019-01-11T20:24:54.434Z,26.63
2019-01-11T20:27:21.978Z,26.30
2019-01-11T20:29:49.472Z,26.23
2019-01-11T20:32:16.931Z,25.80
2019-01-11T20:34:44.564Z,24.27
2019-01-11T20:37:23.864Z,25.77
2019-01-11T20:39:51.605Z,27.20
2019-01-11T20:42:19.018Z,27.13
2019-01-11T20:44:46.695Z,31.20
2019-01-11T20:47:14.443Z,29.93
2019-01-11T20:49:41.994Z,26.63
2019-01-11T20:52:09.666Z,29.03
2019-01-11T20:54:37.239Z,27.17
2019-01-11T20:57:04.900Z,28.60
2019-01-11T20:59:32.352Z,28.13
2019-01-11T21:01:59.991Z,28.80
2019-01-11T21:04:27.676Z,25.50
2019-01-11T21:06:55.348Z,26.33
2019-01-11T21:09:22.781Z,25.80
2019-01-11T21:11:50.261Z,26.53
2019-01-11T21:14:17.772Z,29.60
2019-01-11T21:16:45.354Z,28.10
2019-01-11T21:19:12.913Z,28.67
2019-01-11T21:21:40.512Z,29.90
2019-01-11T21:24:10.059Z,26.47
2019-01-11T21:26:37.737Z,28.43
2019-01-11T21:29:05.269Z,31.20
2019-01-11T21:31:33.551Z,28.70
2019-01-11T21:34:00.996Z,30.27
2019-01-11T21:36:28.619Z,28.40
2019-01-11T21:38:56.119Z,25.83
2019-01-11T21:41:23.782Z,28.60
2019-01-11T21:43:51.274Z,26.40
2019-01-11T21:46:18.772Z,26.47
2019-01-11T21:48:47.350Z,26.93
2019-01-11T21:51:14.952Z,26.03
2019-01-11T21:53:42.526Z,27.20
2019-01-11T21:56:10.186Z,27.93
2019-01-11T21:58:37.746Z,27.23
2019-01-11T22:01:05.511Z,26.17
2019-01-11T22:03:32.886Z,28.13
2019-01-11T22:06:00.453Z,24.13
2019-01-11T22:08:27.964Z,25.90
2019-01-11T22:10:55.398Z,26.03
2019-01-11T22:13:22.877Z,28.53
2019-01-11T22:15:50.502Z,26.63
2019-01-11T22:18:17.971Z,27.27
2019-01-11T22:20:45.444Z,28.77
2019-01-11T22:23:12.908Z,22.47
2019-01-11T22:25:40.486Z,25.00
2019-01-11T22:28:08.273Z,25.03
2019-01-11T22:30:35.732Z,27.63
2019-01-11T22:33:03.494Z,25.67
2019-01-11T22:35:31.020Z,25.30
2019-01-11T22:37:58.462Z,28.03
2019-01-11T22:40:26.033Z,24.00
2019-01-11T22:42:56.051Z,27.13
2019-01-11T22:45:23.683Z,30.47
2019-01-11T22:47:51.290Z,27.90
2019-01-11T22:50:19.341Z,30.00
2019-01-11T22:52:46.911Z,24.27
2019-01-11T22:55:15.214Z,32.37
2019-01-11T22:57:42.700Z,25.70
2019-01-11T23:01:13.231Z,24.63
2019-01-11T23:03:43.938Z,27.97
2019-01-11T23:06:39.813Z,27.23
2019-01-11T23:09:11.021Z,30.13
2019-01-11T23:11:52.855Z,27.57
2019-01-11T23:14:20.460Z,26.03
2019-01-11T23:17:08.906Z,24.40
2019-01-11T23:19:36.420Z,25.20
2019-01-11T23:22:03.996Z,28.60
2019-01-11T23:24:31.479Z,26.73
2019-01-11T23:26:58.920Z,28.57
2019-01-11T23:29:26.636Z,27.17
2019-01-11T23:31:54.148Z,25.03
2019-01-11T23:34:21.657Z,23.03
2019-01-11T23:36:49.124Z,27.27
2019-01-11T23:39:16.677Z,26.47
2019-01-11T23:41:45.726Z,27.77
2019-01-11T23:44:13.482Z,25.70
2019-01-11T23:46:40.932Z,22.30
2019-01-11T23:49:08.513Z,25.90
2019-01-11T23:51:36.670Z,22.50
2019-01-11T23:54:04.444Z,25.47
2019-01-11T23:56:31.972Z,27.27
2019-01-11T23:58:59.511Z,23.63
